createdAt,value
2022-09-12T00:02:42.253Z,76.77
2022-09-12T00:07:44.248Z,76.80
2022-09-12T00:12:46.343Z,76.95
2022-09-12T00:17:48.404Z,76.83
2022-09-12T00:22:50.634Z,77.04
2022-09-12T00:27:52.899Z,77.26
2022-09-12T00:32:54.971Z,77.05
2022-09-12T00:37:56.976Z,77.09
2022-09-12T00:42:59.296Z,77.03
2022-09-12T00:48:04.692Z,76.97
2022-09-12T00:53:09.274Z,76.83
2022-09-12T00:58:17.267Z,76.56
2022-09-12T01:03:23.120Z,76.83
2022-09-12T01:08:26.204Z,76.61
2022-09-12T01:13:29.008Z,76.66
2022-09-12T01:18:49.912Z,76.63
2022-09-12T01:24:10.787Z,76.87
2022-09-12T01:29:33.206Z,76.59
2022-09-12T01:34:56.624Z,76.79
2022-09-12T01:40:39.239Z,76.69
2022-09-12T01:45:49.496Z,76.54
2022-09-12T01:51:17.073Z,76.58
2022-09-12T01:56:26.225Z,76.80
2022-09-12T02:01:31.358Z,76.84
2022-09-12T02:06:41.168Z,76.32
2022-09-12T02:11:44.946Z,76.36
2022-09-12T02:16:51.354Z,76.84
2022-09-12T02:22:03.011Z,76.74
2022-09-12T02:27:14.204Z,76.66
2022-09-12T02:32:22.411Z,76.55
2022-09-12T02:37:51.641Z,76.46
2022-09-12T02:42:53.925Z,76.42
2022-09-12T02:48:21.100Z,76.61
2022-09-12T02:53:23.179Z,76.66
2022-09-12T02:58:30.096Z,76.79
2022-09-12T03:03:34.668Z,76.50
2022-09-12T03:09:25.754Z,76.78
2022-09-12T03:14:42.696Z,76.70
2022-09-12T03:19:52.604Z,76.80
2022-09-12T03:25:01.003Z,77.06
2022-09-12T03:30:06.389Z,76.80
2022-09-12T03:35:08.774Z,76.88
2022-09-12T03:40:12.303Z,76.61
2022-09-12T03:45:14.624Z,76.78
2022-09-12T03:50:16.813Z,77.00
2022-09-12T03:55:18.977Z,76.87
2022-09-12T04:00:21.739Z,77.10
2022-09-12T04:05:24.994Z,76.91
2022-09-12T04:10:27.152Z,76.66
2022-09-12T04:15:29.131Z,76.79
2022-09-12T04:20:31.212Z,76.86
2022-09-12T04:25:33.176Z,76.74
2022-09-12T04:30:35.705Z,77.11
2022-09-12T04:35:37.738Z,76.93
2022-09-12T04:40:40.266Z,76.97
2022-09-12T04:45:42.420Z,76.85
2022-09-12T04:50:44.535Z,76.75
2022-09-12T04:55:46.662Z,76.97
2022-09-12T05:00:49.187Z,76.89
2022-09-12T05:05:54.542Z,76.83
2022-09-12T05:11:06.298Z,76.84
2022-09-12T05:16:11.596Z,76.91
2022-09-12T05:21:16.605Z,77.01
2022-09-12T05:26:20.778Z,77.26
2022-09-12T05:31:27.600Z,76.95
2022-09-12T05:36:31.072Z,77.00
2022-09-12T05:41:34.260Z,76.84
2022-09-12T05:46:41.416Z,76.92
2022-09-12T05:51:45.900Z,77.20
2022-09-12T05:56:49.207Z,76.96
2022-09-12T06:01:52.549Z,77.21
2022-09-12T06:06:54.640Z,77.50
2022-09-12T06:11:56.833Z,77.44
2022-09-12T06:16:59.264Z,76.32
2022-09-12T06:22:01.894Z,76.03
2022-09-12T06:27:04.076Z,75.44
2022-09-12T06:32:07.542Z,75.71
2022-09-12T06:37:09.792Z,75.62
2022-09-12T06:42:12.953Z,75.44
2022-09-12T06:47:14.825Z,76.07
2022-09-12T06:52:16.877Z,75.70
2022-09-12T06:57:18.970Z,76.15
2022-09-12T07:02:21.045Z,76.47
2022-09-12T07:07:23.293Z,76.15
2022-09-12T07:12:25.591Z,75.96
2022-09-12T07:17:27.608Z,76.45
2022-09-12T07:22:29.684Z,76.69
2022-09-12T07:27:31.763Z,76.81
2022-09-12T07:32:34.163Z,76.09
2022-09-12T07:37:36.299Z,76.68
2022-09-12T07:42:38.519Z,76.83
2022-09-12T07:47:41.046Z,76.79
2022-09-12T07:52:43.092Z,77.44
2022-09-12T07:57:45.112Z,77.05
2022-09-12T08:02:52.004Z,76.99
2022-09-12T08:07:57.653Z,75.37
2022-09-12T08:13:00.159Z,74.42
2022-09-12T08:18:02.500Z,73.42
2022-09-12T08:23:04.621Z,73.23
2022-09-12T08:28:06.736Z,71.89
2022-09-12T08:33:08.821Z,72.58
2022-09-12T08:38:11.076Z,70.98
2022-09-12T08:43:29.853Z,71.84
2022-09-12T08:48:32.281Z,72.41
2022-09-12T08:53:36.203Z,71.93
2022-09-12T08:58:43.732Z,71.13
2022-09-12T09:03:54.873Z,70.93
2022-09-12T09:09:14.656Z,70.73
2022-09-12T09:14:42.606Z,69.79
2022-09-12T09:19:52.450Z,67.83
2022-09-12T09:25:01.879Z,68.65
2022-09-12T09:30:04.454Z,67.46
2022-09-12T09:35:17.404Z,68.08
2022-09-12T09:40:28.525Z,68.01
2022-09-12T09:45:31.128Z,67.65
2022-09-12T09:50:33.956Z,66.19
2022-09-12T09:55:42.531Z,65.68
2022-09-12T10:00:44.780Z,63.89
2022-09-12T10:05:46.841Z,63.82
2022-09-12T10:10:59.273Z,65.53
2022-09-12T10:16:05.555Z,64.99
2022-09-12T10:21:36.009Z,65.94
2022-09-12T10:26:40.782Z,65.81
2022-09-12T10:31:51.330Z,65.42
2022-09-12T10:36:58.914Z,66.62
2022-09-12T10:42:01.865Z,65.69
2022-09-12T10:47:20.688Z,65.33
2022-09-12T10:52:27.564Z,66.10
2022-09-12T10:57:38.623Z,64.79
2022-09-12T11:03:05.660Z,65.19
2022-09-12T11:08:28.431Z,64.85
2022-09-12T11:14:12.332Z,65.19
2022-09-12T11:19:40.990Z,64.47
2022-09-12T11:25:05.693Z,64.65
2022-09-12T11:30:17.565Z,64.81
2022-09-12T11:35:24.796Z,64.02
2022-09-12T11:40:48.811Z,64.00
2022-09-12T11:45:52.165Z,64.07
2022-09-12T11:50:54.251Z,64.35
2022-09-12T11:56:18.069Z,64.41
2022-09-12T12:01:28.889Z,64.32
2022-09-12T12:06:34.278Z,65.02
2022-09-12T12:11:43.036Z,65.18
2022-09-12T12:16:45.620Z,65.22
2022-09-12T12:21:49.621Z,65.01
2022-09-12T12:26:59.240Z,65.47
2022-09-12T12:32:04.199Z,65.62
2022-09-12T12:37:21.236Z,66.12
2022-09-12T12:42:35.295Z,66.45
2022-09-12T12:47:40.229Z,65.48
2022-09-12T12:52:48.108Z,64.99
2022-09-12T12:57:53.671Z,64.73
2022-09-12T13:03:01.720Z,63.66
2022-09-12T13:08:10.423Z,62.20
2022-09-12T13:13:25.728Z,62.97
2022-09-12T13:18:33.102Z,63.94
2022-09-12T13:23:35.652Z,62.64
2022-09-12T13:28:38.236Z,63.98
2022-09-12T13:33:52.737Z,64.96
2022-09-12T13:39:03.132Z,65.61
2022-09-12T13:44:11.352Z,68.12
2022-09-12T13:49:39.930Z,67.98
2022-09-12T13:54:46.672Z,67.89
2022-09-12T13:59:49.083Z,68.89
2022-09-12T14:05:11.579Z,68.52
2022-09-12T14:10:17.704Z,66.95
2022-09-12T14:15:27.203Z,67.77
2022-09-12T14:20:34.807Z,67.54
2022-09-12T14:25:41.535Z,67.48
2022-09-12T14:31:07.598Z,68.28
2022-09-12T14:36:15.997Z,68.69
2022-09-12T14:41:37.547Z,68.54
2022-09-12T14:46:42.000Z,67.84
2022-09-12T14:51:51.166Z,66.50
2022-09-12T14:56:59.063Z,67.04
2022-09-12T15:02:19.829Z,65.42
2022-09-12T15:07:35.007Z,66.58
2022-09-12T15:12:37.000Z,62.41
2022-09-12T15:17:39.117Z,60.49
2022-09-12T15:22:42.297Z,62.06
2022-09-12T15:27:45.870Z,64.04
2022-09-12T15:32:48.127Z,62.54
2022-09-12T15:37:50.334Z,62.10
2022-09-12T15:42:53.048Z,61.72
2022-09-12T15:47:55.746Z,62.66
2022-09-12T15:52:58.775Z,62.19
2022-09-12T15:58:06.306Z,62.12
2022-09-12T16:03:22.171Z,62.31
2022-09-12T16:08:24.584Z,61.70
2022-09-12T16:13:26.777Z,61.62
2022-09-12T16:18:29.275Z,62.19
2022-09-12T16:23:31.468Z,62.75
2022-09-12T16:28:33.896Z,62.76
2022-09-12T16:33:38.167Z,59.65
2022-09-12T16:38:47.589Z,57.29
2022-09-12T16:43:49.794Z,56.44
2022-09-12T16:48:57.839Z,56.55
2022-09-12T16:54:00.170Z,57.26
2022-09-12T16:59:04.552Z,57.57
2022-09-12T17:04:06.947Z,56.87
2022-09-12T17:09:10.898Z,58.53
2022-09-12T17:14:13.015Z,58.83
2022-09-12T17:19:20.913Z,58.73
2022-09-12T17:24:23.331Z,58.21
2022-09-12T17:29:25.362Z,58.48
2022-09-12T17:34:27.512Z,58.47
2022-09-12T17:39:29.676Z,58.64
2022-09-12T17:44:32.066Z,59.39
2022-09-12T17:49:34.176Z,60.29
2022-09-12T17:54:36.392Z,62.61
2022-09-12T17:59:38.422Z,63.18
2022-09-12T18:04:41.691Z,63.85
2022-09-12T18:09:44.143Z,64.73
2022-09-12T18:14:46.239Z,65.25
2022-09-12T18:19:53.418Z,65.59
2022-09-12T18:24:55.687Z,66.11
2022-09-12T18:30:19.509Z,67.69
2022-09-12T18:35:19.958Z,68.15
2022-09-12T18:40:22.061Z,69.05
2022-09-12T18:45:24.136Z,69.44
2022-09-12T18:50:26.186Z,69.06
2022-09-12T18:55:28.413Z,69.55
2022-09-12T19:00:30.565Z,69.63
2022-09-12T19:05:33.841Z,69.41
2022-09-12T19:10:36.311Z,69.66
2022-09-12T19:15:41.493Z,69.68
2022-09-12T19:20:43.972Z,69.67
2022-09-12T19:25:55.620Z,69.77
2022-09-12T19:30:58.025Z,69.91
2022-09-12T19:36:04.841Z,70.02
2022-09-12T19:41:12.290Z,70.01
2022-09-12T19:46:18.526Z,70.18
2022-09-12T19:51:24.127Z,70.33
2022-09-12T19:56:26.318Z,70.52
2022-09-12T20:01:29.039Z,70.70
2022-09-12T20:06:31.276Z,70.78
2022-09-12T20:11:33.348Z,70.64
2022-09-12T20:16:35.729Z,71.16
2022-09-12T20:21:38.138Z,71.40
2022-09-12T20:26:41.093Z,71.90
2022-09-12T20:31:43.514Z,71.78
2022-09-12T20:36:46.791Z,71.74
2022-09-12T20:41:49.475Z,72.21
2022-09-12T20:46:51.579Z,72.10
2022-09-12T20:51:53.615Z,72.32
2022-09-12T20:56:55.805Z,72.50
2022-09-12T21:01:57.881Z,72.47
2022-09-12T21:07:00.001Z,72.42
2022-09-12T21:12:02.216Z,72.44
2022-09-12T21:17:05.548Z,72.44
2022-09-12T21:22:07.516Z,72.73
2022-09-12T21:27:09.532Z,72.81
2022-09-12T21:32:14.268Z,72.88
2022-09-12T21:37:16.550Z,72.86
2022-09-12T21:42:18.948Z,72.70
2022-09-12T21:47:21.082Z,73.16
2022-09-12T21:52:23.164Z,73.11
2022-09-12T21:57:25.480Z,72.83
2022-09-12T22:02:31.469Z,72.87
2022-09-12T22:07:34.085Z,73.16
2022-09-12T22:12:36.262Z,73.25
2022-09-12T22:17:38.339Z,73.54
2022-09-12T22:22:58.763Z,73.55
2022-09-12T22:28:00.901Z,73.43
2022-09-12T22:33:02.908Z,73.52
2022-09-12T22:38:04.921Z,73.58
2022-09-12T22:43:07.033Z,73.86
2022-09-12T22:48:09.531Z,73.70
2022-09-12T22:53:11.685Z,74.01
2022-09-12T22:58:13.643Z,74.05
2022-09-12T23:03:16.513Z,74.01
2022-09-12T23:08:19.631Z,73.90
2022-09-12T23:13:21.727Z,73.80
2022-09-12T23:18:23.754Z,74.10
2022-09-12T23:23:26.001Z,74.00
2022-09-12T23:28:28.114Z,73.89
2022-09-12T23:33:31.792Z,73.83
2022-09-12T23:38:35.492Z,74.30
2022-09-12T23:43:37.612Z,74.10
2022-09-12T23:48:39.948Z,74.12
2022-09-12T23:53:42.169Z,73.96
2022-09-12T23:58:44.308Z,74.06
